createdAt,value
2018-01-10T00:01:57.061Z,97535.42
2018-01-10T00:04:25.320Z,97536.81
2018-01-10T00:06:54.360Z,97534.55
2018-01-10T00:09:22.617Z,97527.98
2018-01-10T00:11:51.659Z,97526.16
2018-01-10T00:14:19.912Z,97525.95
2018-01-10T00:16:48.960Z,97529.30
2018-01-10T00:19:17.494Z,97526.97
2018-01-10T00:21:45.837Z,97533.73
2018-01-10T00:24:14.167Z,97526.29
2018-01-10T00:26:42.432Z,97522.41
2018-01-10T00:29:10.696Z,97522.58
2018-01-10T00:31:38.927Z,97520.55
2018-01-10T00:34:07.204Z,97525.01
2018-01-10T00:36:35.469Z,97529.70
2018-01-10T00:39:03.727Z,97529.61
2018-01-10T00:41:32.748Z,97532.55
2018-01-10T00:44:01.023Z,97534.14
2018-01-10T00:46:30.050Z,97526.56
2018-01-10T00:48:58.324Z,97524.70
2018-01-10T00:51:26.583Z,97517.84
2018-01-10T00:53:54.864Z,97523.17
2018-01-10T00:56:23.115Z,97521.54
2018-01-10T00:58:51.379Z,97520.45
2018-01-10T01:01:20.397Z,97521.14
2018-01-10T01:03:48.796Z,97524.48
2018-01-10T01:06:17.055Z,97526.01
2018-01-10T01:08:45.328Z,97527.80
2018-01-10T01:11:13.585Z,97523.49
2018-01-10T01:13:41.862Z,97531.67
2018-01-10T01:16:10.103Z,97528.12
2018-01-10T01:18:38.373Z,97531.06
2018-01-10T01:21:06.641Z,97527.15
2018-01-10T01:23:34.923Z,97521.13
2018-01-10T01:26:03.179Z,97523.51
2018-01-10T01:28:32.217Z,97522.57
2018-01-10T01:31:00.478Z,97525.78
2018-01-10T01:33:29.606Z,97524.73
2018-01-10T01:35:58.601Z,97527.61
2018-01-10T01:38:26.870Z,97522.61
2018-01-10T01:40:55.902Z,97523.02
2018-01-10T01:43:24.937Z,97525.17
2018-01-10T01:45:53.186Z,97525.62
2018-01-10T01:48:22.228Z,97528.97
2018-01-10T01:50:51.332Z,97523.70
2018-01-10T01:53:19.612Z,97523.32
2018-01-10T01:55:47.876Z,97523.05
2018-01-10T01:58:16.903Z,97515.78
2018-01-10T02:00:45.173Z,97511.96
2018-01-10T02:03:14.256Z,97514.13
2018-01-10T02:05:42.535Z,97514.46
2018-01-10T02:08:10.787Z,97510.09
2018-01-10T02:10:39.818Z,97512.80
2018-01-10T02:13:08.094Z,97502.46
2018-01-10T02:15:36.368Z,97502.15
2018-01-10T02:18:05.428Z,97502.66
2018-01-10T02:20:33.721Z,97499.44
2018-01-10T02:23:01.997Z,97502.45
2018-01-10T02:25:30.294Z,97507.91
2018-01-10T02:28:01.500Z,97502.42
2018-01-10T02:30:29.772Z,97505.34
2018-01-10T02:32:58.033Z,97504.73
2018-01-10T02:35:26.307Z,97504.28
2018-01-10T02:37:54.554Z,97494.42
2018-01-10T02:40:22.828Z,97499.42
2018-01-10T02:42:51.089Z,97497.49
2018-01-10T02:45:19.347Z,97499.99
2018-01-10T02:47:47.603Z,97499.02
2018-01-10T02:50:15.874Z,97496.51
2018-01-10T02:52:44.911Z,97493.23
2018-01-10T02:55:13.186Z,97499.52
2018-01-10T02:57:41.459Z,97503.91
2018-01-10T03:00:10.500Z,97502.66
2018-01-10T03:02:38.759Z,97509.55
2018-01-10T03:05:07.826Z,97504.75
2018-01-10T03:07:36.084Z,97503.23
2018-01-10T03:10:04.358Z,97511.02
2018-01-10T03:12:32.616Z,97509.77
2018-01-10T03:15:01.647Z,97503.44
2018-01-10T03:17:29.907Z,97501.78
2018-01-10T03:19:58.195Z,97504.76
2018-01-10T03:22:26.460Z,97506.52
2018-01-10T03:24:54.732Z,97505.84
2018-01-10T03:27:22.998Z,97505.84
2018-01-10T03:29:51.292Z,97504.39
2018-01-10T03:32:19.544Z,97516.66
2018-01-10T03:34:47.791Z,97508.48
2018-01-10T03:37:16.056Z,97504.32
2018-01-10T03:39:44.327Z,97507.09
2018-01-10T03:42:13.397Z,97507.94
2018-01-10T03:44:41.648Z,97510.03
2018-01-10T03:47:09.930Z,97504.69
2018-01-10T03:49:38.199Z,97514.33
2018-01-10T03:52:06.481Z,97516.80
2018-01-10T03:54:35.495Z,97506.86
2018-01-10T03:57:04.520Z,97508.33
2018-01-10T03:59:32.772Z,97502.62
2018-01-10T04:02:01.042Z,97508.13
2018-01-10T04:04:29.295Z,97509.13
2018-01-10T04:06:57.570Z,97505.81
2018-01-10T04:09:25.816Z,97505.11
2018-01-10T04:11:54.097Z,97504.53
2018-01-10T04:14:22.342Z,97507.29
2018-01-10T04:16:50.602Z,97507.88
2018-01-10T04:19:19.611Z,97499.39
2018-01-10T04:21:48.643Z,97505.06
2018-01-10T04:24:16.902Z,97507.33
2018-01-10T04:26:45.943Z,97499.36
2018-01-10T04:29:14.214Z,97500.21
2018-01-10T04:31:43.238Z,97503.36
2018-01-10T04:34:11.494Z,97502.47
2018-01-10T04:36:40.523Z,97505.52
2018-01-10T04:39:08.776Z,97501.99
2018-01-10T04:41:37.056Z,97504.02
2018-01-10T04:44:05.300Z,97509.90
2018-01-10T04:46:33.576Z,97502.70
2018-01-10T04:49:01.854Z,97500.75
2018-01-10T04:51:30.877Z,97507.23
2018-01-10T04:53:59.172Z,97505.72
2018-01-10T04:56:28.171Z,97507.29
2018-01-10T04:58:56.455Z,97507.56
2018-01-10T05:01:24.730Z,97508.19
2018-01-10T05:03:53.773Z,97507.73
2018-01-10T05:06:22.027Z,97512.60
2018-01-10T05:08:51.056Z,97508.00
2018-01-10T05:11:19.303Z,97509.97
2018-01-10T05:13:47.576Z,97504.73
2018-01-10T05:16:15.824Z,97514.83
2018-01-10T05:18:44.099Z,97513.27
2018-01-10T05:21:13.115Z,97515.17
2018-01-10T05:23:42.143Z,97515.50
2018-01-10T05:26:10.407Z,97509.08
2018-01-10T05:28:39.450Z,97515.50
2018-01-10T05:31:08.318Z,97508.55
2018-01-10T05:33:36.722Z,97503.38
2018-01-10T05:36:04.986Z,97495.33
2018-01-10T05:38:34.051Z,97500.46
2018-01-10T05:41:02.303Z,97499.66
2018-01-10T05:43:30.553Z,97493.03
2018-01-10T05:45:59.592Z,97497.21
2018-01-10T05:48:27.856Z,97493.86
2018-01-10T05:50:56.142Z,97499.23
2018-01-10T05:53:24.424Z,97493.84
2018-01-10T05:55:52.665Z,97504.00
2018-01-10T05:58:20.987Z,97500.55
2018-01-10T06:00:49.287Z,97505.73
2018-01-10T06:03:17.580Z,97504.95
2018-01-10T06:05:45.880Z,97506.38
2018-01-10T06:08:14.247Z,97509.29
2018-01-10T06:10:42.504Z,97506.96
2018-01-10T06:13:10.781Z,97505.22
2018-01-10T06:15:39.056Z,97505.20
2018-01-10T06:18:07.350Z,97506.38
2018-01-10T06:20:36.356Z,97502.11
2018-01-10T06:23:05.351Z,97507.36
2018-01-10T06:25:34.444Z,97501.07
2018-01-10T06:28:02.653Z,97505.14
2018-01-10T06:30:31.692Z,97507.39
2018-01-10T06:32:59.940Z,97507.91
2018-01-10T06:35:28.986Z,97500.84
2018-01-10T06:37:57.237Z,97501.75
2018-01-10T06:40:26.263Z,97507.98
2018-01-10T06:42:54.528Z,97506.02
2018-01-10T06:45:22.795Z,97506.69
2018-01-10T06:47:51.084Z,97508.41
2018-01-10T06:50:19.425Z,97506.64
2018-01-10T06:52:47.664Z,97512.12
2018-01-10T06:55:16.004Z,97511.14
2018-01-10T06:57:44.306Z,97513.99
2018-01-10T07:00:12.584Z,97517.95
2018-01-10T07:02:40.856Z,97522.91
2018-01-10T07:05:09.929Z,97521.73
2018-01-10T07:07:38.957Z,97535.12
2018-01-10T07:10:08.002Z,97522.64
2018-01-10T07:12:37.015Z,97519.09
2018-01-10T07:15:05.309Z,97539.59
2018-01-10T07:17:33.565Z,97524.43
2018-01-10T07:20:02.601Z,97522.96
2018-01-10T07:22:31.760Z,97518.61
2018-01-10T07:25:00.053Z,97530.05
2018-01-10T07:27:28.328Z,97526.74
2018-01-10T07:29:56.639Z,97522.52
2018-01-10T07:32:25.654Z,97528.27
2018-01-10T07:34:54.691Z,97525.87
2018-01-10T07:37:22.954Z,97526.34
2018-01-10T07:39:51.977Z,97528.10
2018-01-10T07:42:20.235Z,97524.06
2018-01-10T07:44:48.514Z,97530.48
2018-01-10T07:47:16.758Z,97527.57
2018-01-10T07:49:45.006Z,97527.84
2018-01-10T07:52:14.042Z,97527.94
2018-01-10T07:54:42.305Z,97522.07
2018-01-10T07:57:11.340Z,97525.27
2018-01-10T07:59:39.593Z,97514.75
2018-01-10T08:02:08.626Z,97520.81
2018-01-10T08:04:36.887Z,97513.91
2018-01-10T08:07:05.152Z,97513.24
2018-01-10T08:09:33.404Z,97516.70
2018-01-10T08:12:02.475Z,97512.25
2018-01-10T08:14:31.491Z,97512.35
2018-01-10T08:17:00.528Z,97509.08
2018-01-10T08:19:28.784Z,97508.84
2018-01-10T08:21:57.852Z,97516.00
2018-01-10T08:24:26.124Z,97514.16
2018-01-10T08:26:54.403Z,97513.23
2018-01-10T08:29:22.671Z,97511.22
2018-01-10T08:31:51.722Z,97516.48
2018-01-10T08:34:19.964Z,97515.07
2018-01-10T08:36:48.996Z,97521.08
2018-01-10T08:39:17.250Z,97517.04
2018-01-10T08:41:45.528Z,97518.44
2018-01-10T08:44:13.841Z,97515.87
2018-01-10T08:46:42.877Z,97511.31
2018-01-10T08:49:11.131Z,97508.41
2018-01-10T08:51:40.183Z,97512.90
2018-01-10T08:54:08.436Z,97508.93
2018-01-10T08:56:36.710Z,97509.84
2018-01-10T08:59:05.734Z,97500.42
2018-01-10T09:01:34.027Z,97506.02
2018-01-10T09:04:02.280Z,97508.70
2018-01-10T09:06:30.560Z,97503.38
2018-01-10T09:08:58.805Z,97506.30
2018-01-10T09:11:27.092Z,97500.97
2018-01-10T09:13:55.348Z,97506.00
2018-01-10T09:16:24.395Z,97508.84
2018-01-10T09:18:52.676Z,97502.38
2018-01-10T09:21:20.947Z,97496.20
2018-01-10T09:23:49.966Z,97498.09
2018-01-10T09:26:19.022Z,97496.91
2018-01-10T09:28:47.284Z,97487.90
2018-01-10T09:31:15.552Z,97491.28
2018-01-10T09:33:43.800Z,97498.31
2018-01-10T09:36:12.076Z,97497.13
2018-01-10T09:38:40.338Z,97490.83
2018-01-10T09:41:09.120Z,97490.83
2018-01-10T09:43:37.397Z,97484.53
2018-01-10T09:46:06.418Z,97485.86
2018-01-10T09:48:34.675Z,97488.05
2018-01-10T09:51:03.871Z,97479.59
2018-01-10T09:53:32.146Z,97478.82
2018-01-10T09:56:00.403Z,97475.35
2018-01-10T09:58:28.691Z,97471.92
2018-01-10T10:00:56.946Z,97476.02
2018-01-10T10:03:25.971Z,97468.64
2018-01-10T10:05:54.241Z,97467.20
2018-01-10T10:08:22.512Z,97462.95
2018-01-10T10:10:50.782Z,97458.23
2018-01-10T10:13:19.040Z,97459.49
2018-01-10T10:15:47.340Z,97454.48
2018-01-10T10:18:15.605Z,97449.05
2018-01-10T10:20:44.611Z,97455.23
2018-01-10T10:23:12.890Z,97445.16
2018-01-10T10:25:41.896Z,97450.44
2018-01-10T10:28:10.932Z,97442.93
2018-01-10T10:30:39.196Z,97439.94
2018-01-10T10:33:07.475Z,97436.78
2018-01-10T10:35:36.519Z,97436.42
2018-01-10T10:38:04.791Z,97431.19
2018-01-10T10:40:33.039Z,97430.88
2018-01-10T10:43:02.436Z,97426.09
2018-01-10T10:45:30.708Z,97423.84
2018-01-10T10:47:59.009Z,97423.80
2018-01-10T10:50:27.260Z,97417.84
2018-01-10T10:52:55.642Z,97419.69
2018-01-10T10:55:24.666Z,97409.75
2018-01-10T10:57:52.928Z,97412.23
2018-01-10T11:00:21.960Z,97411.67
2018-01-10T11:02:50.216Z,97407.84
2018-01-10T11:05:18.496Z,97405.21
2018-01-10T11:07:46.754Z,97400.89
2018-01-10T11:10:15.804Z,97400.95
2018-01-10T11:12:44.840Z,97388.22
2018-01-10T11:15:13.123Z,97396.27
2018-01-10T11:17:42.175Z,97391.75
2018-01-10T11:20:10.417Z,97387.27
2018-01-10T11:22:38.698Z,97383.26
2018-01-10T11:25:07.820Z,97386.42
2018-01-10T11:27:36.109Z,97380.68
2018-01-10T11:30:04.407Z,97378.83
2018-01-10T11:32:33.719Z,97377.09
2018-01-10T11:35:01.989Z,97375.23
2018-01-10T11:37:31.021Z,97369.87
2018-01-10T11:39:59.298Z,97367.34
2018-01-10T11:42:27.576Z,97360.03
2018-01-10T11:44:56.629Z,97353.09
2018-01-10T11:47:24.885Z,97347.01
2018-01-10T11:49:53.170Z,97348.73
2018-01-10T11:52:22.196Z,97343.66
2018-01-10T11:54:50.500Z,97343.41
2018-01-10T11:57:18.777Z,97334.02
2018-01-10T11:59:47.069Z,97337.88
2018-01-10T12:02:15.337Z,97333.20
2018-01-10T12:04:43.631Z,97330.43
2018-01-10T12:07:11.908Z,97332.67
2018-01-10T12:09:40.200Z,97329.80
2018-01-10T12:12:09.235Z,97318.52
2018-01-10T12:14:37.606Z,97314.17
2018-01-10T12:17:05.876Z,97315.88
2018-01-10T12:19:34.919Z,97309.41
2018-01-10T12:22:03.198Z,97305.70
2018-01-10T12:24:31.467Z,97300.93
2018-01-10T12:27:00.528Z,97307.74
2018-01-10T12:29:28.830Z,97296.64
2018-01-10T12:31:57.879Z,97291.80
2018-01-10T12:34:26.152Z,97290.60
2018-01-10T12:36:55.223Z,97283.92
2018-01-10T12:39:23.496Z,97289.53
2018-01-10T12:41:51.774Z,97282.05
2018-01-10T12:44:20.056Z,97288.08
2018-01-10T12:46:48.333Z,97281.89
2018-01-10T12:49:16.587Z,97280.16
2018-01-10T12:51:44.863Z,97276.28
2018-01-10T12:54:13.126Z,97269.78
2018-01-10T12:56:41.436Z,97271.77
2018-01-10T12:59:09.710Z,97273.63
2018-01-10T13:01:38.008Z,97269.91
2018-01-10T13:04:06.273Z,97271.27
2018-01-10T13:06:34.547Z,97266.82
2018-01-10T13:09:02.831Z,97265.61
2018-01-10T13:11:31.128Z,97263.22
2018-01-10T13:13:59.447Z,97269.38
2018-01-10T13:16:27.719Z,97270.44
2018-01-10T13:18:56.014Z,97272.18
2018-01-10T13:21:24.300Z,97271.42
2018-01-10T13:23:53.348Z,97268.11
2018-01-10T13:26:21.664Z,97269.88
2018-01-10T13:28:50.693Z,97262.41
2018-01-10T13:31:18.982Z,97265.45
2018-01-10T13:33:47.244Z,97271.09
2018-01-10T13:36:16.295Z,97265.98
2018-01-10T13:38:44.548Z,97269.08
2018-01-10T13:41:13.615Z,97270.77
2018-01-10T13:43:41.908Z,97263.63
2018-01-10T13:46:10.176Z,97272.87
2018-01-10T13:48:38.468Z,97269.01
2018-01-10T13:51:07.253Z,97273.53
2018-01-10T13:53:35.532Z,97276.59
2018-01-10T13:56:03.787Z,97272.48
2018-01-10T13:58:32.834Z,97274.35
2018-01-10T14:01:01.126Z,97269.30
2018-01-10T14:03:29.411Z,97283.00
2018-01-10T14:05:57.684Z,97285.14
2018-01-10T14:08:26.728Z,97280.68
2018-01-10T14:10:54.977Z,97279.72
2018-01-10T14:13:24.017Z,97284.63
2018-01-10T14:15:52.303Z,97283.46
2018-01-10T14:18:20.638Z,97289.30
2018-01-10T14:20:48.869Z,97287.80
2018-01-10T14:23:17.148Z,97283.36
2018-01-10T14:25:46.161Z,97280.94
2018-01-10T14:28:14.439Z,97283.05
2018-01-10T14:30:43.469Z,97289.24
2018-01-10T14:33:11.752Z,97281.22
2018-01-10T14:35:40.004Z,97286.52
2018-01-10T14:38:08.280Z,97287.85
2018-01-10T14:40:36.531Z,97284.34
2018-01-10T14:43:04.808Z,97281.95
2018-01-10T14:45:33.075Z,97281.95
2018-01-10T14:48:02.159Z,97285.13
2018-01-10T14:50:30.414Z,97285.36
2018-01-10T14:52:58.723Z,97287.28
2018-01-10T14:55:26.987Z,97288.77
2018-01-10T14:57:55.240Z,97289.39
2018-01-10T15:00:24.258Z,97294.20
2018-01-10T15:02:52.534Z,97291.87
2018-01-10T15:05:21.576Z,97288.50
2018-01-10T15:07:49.885Z,97298.03
2018-01-10T15:10:18.146Z,97300.44
2018-01-10T15:12:46.437Z,97299.95
2018-01-10T15:15:14.719Z,97301.19
2018-01-10T15:17:43.750Z,97300.70
2018-01-10T15:20:12.040Z,97305.09
2018-01-10T15:22:40.313Z,97305.92
2018-01-10T15:25:08.650Z,97300.42
2018-01-10T15:27:36.912Z,97309.12
2018-01-10T15:30:05.201Z,97303.66
2018-01-10T15:32:33.473Z,97302.71
2018-01-10T15:35:01.751Z,97316.21
2018-01-10T15:37:30.029Z,97318.23
2018-01-10T15:39:59.069Z,97322.89
2018-01-10T15:42:27.348Z,97320.28
2018-01-10T15:44:55.616Z,97322.81
2018-01-10T15:47:24.676Z,97321.92
2018-01-10T15:49:52.944Z,97323.15
2018-01-10T15:52:21.213Z,97324.99
2018-01-10T15:54:49.479Z,97326.44
2018-01-10T15:57:17.723Z,97322.23
2018-01-10T15:59:46.013Z,97334.66
2018-01-10T16:02:14.261Z,97324.97
2018-01-10T16:04:43.296Z,97325.89
2018-01-10T16:07:11.586Z,97328.92
2018-01-10T16:09:39.894Z,97322.92
2018-01-10T16:12:08.191Z,97329.87
2018-01-10T16:14:37.185Z,97324.63
2018-01-10T16:17:05.463Z,97328.63
2018-01-10T16:19:33.730Z,97334.24
2018-01-10T16:22:02.064Z,97332.11
2018-01-10T16:24:30.316Z,97334.01
2018-01-10T16:26:58.560Z,97333.83
2018-01-10T16:29:26.821Z,97329.92
2018-01-10T16:31:55.073Z,97331.47
2018-01-10T16:34:23.314Z,97334.96
2018-01-10T16:36:51.596Z,97331.70
2018-01-10T16:39:19.845Z,97332.31
2018-01-10T16:41:48.108Z,97328.30
2018-01-10T16:44:17.132Z,97329.71
2018-01-10T16:46:45.395Z,97330.52
2018-01-10T16:49:13.667Z,97331.75
2018-01-10T16:51:42.006Z,97329.54
2018-01-10T16:54:10.267Z,97329.22
2018-01-10T16:56:38.590Z,97337.95
2018-01-10T16:59:06.861Z,97342.95
2018-01-10T17:01:35.892Z,97335.75
2018-01-10T17:04:04.201Z,97343.97
2018-01-10T17:06:33.280Z,97346.99
2018-01-10T17:09:01.556Z,97350.17
2018-01-10T17:11:30.738Z,97352.12
2018-01-10T17:13:59.030Z,97351.06
2018-01-10T17:16:27.363Z,97349.33
2018-01-10T17:18:55.627Z,97348.52
2018-01-10T17:21:24.681Z,97351.27
2018-01-10T17:23:52.941Z,97355.36
2018-01-10T17:26:21.976Z,97360.03
2018-01-10T17:28:50.260Z,97354.07
2018-01-10T17:31:18.599Z,97354.17
2018-01-10T17:33:46.860Z,97360.47
2018-01-10T17:36:15.149Z,97354.88
2018-01-10T17:38:43.423Z,97361.91
2018-01-10T17:41:11.712Z,97364.55
2018-01-10T17:43:39.980Z,97372.88
2018-01-10T17:46:08.274Z,97363.72
2018-01-10T17:48:36.583Z,97371.05
2018-01-10T17:51:04.877Z,97373.25
2018-01-10T17:53:33.896Z,97369.28
2018-01-10T17:56:02.204Z,97379.62
2018-01-10T17:58:31.284Z,97372.66
2018-01-10T18:00:59.605Z,97378.91
2018-01-10T18:03:28.064Z,97378.51
2018-01-10T18:05:56.346Z,97379.22
2018-01-10T18:08:24.627Z,97388.83
2018-01-10T18:10:52.921Z,97384.22
2018-01-10T18:13:21.211Z,97389.75
2018-01-10T18:15:49.491Z,97395.05
2018-01-10T18:18:17.781Z,97399.12
2018-01-10T18:20:46.805Z,97397.92
2018-01-10T18:23:15.100Z,97396.02
2018-01-10T18:25:43.381Z,97397.42
2018-01-10T18:28:11.666Z,97394.69
2018-01-10T18:30:39.925Z,97399.36
2018-01-10T18:33:08.975Z,97394.38
2018-01-10T18:35:37.236Z,97412.66
2018-01-10T18:38:05.544Z,97392.73
2018-01-10T18:40:33.820Z,97397.98
2018-01-10T18:43:02.119Z,97401.55
2018-01-10T18:45:30.402Z,97398.30
2018-01-10T18:47:58.691Z,97410.05
2018-01-10T18:50:26.959Z,97392.53
2018-01-10T18:52:55.229Z,97397.08
2018-01-10T18:55:23.529Z,97397.72
2018-01-10T18:57:51.811Z,97400.28
2018-01-10T19:00:20.103Z,97400.26
2018-01-10T19:02:48.385Z,97394.75
2018-01-10T19:05:16.659Z,97388.96
2018-01-10T19:07:44.935Z,97386.62
2018-01-10T19:10:13.270Z,97389.04
2018-01-10T19:12:42.311Z,97386.97
2018-01-10T19:15:10.693Z,97380.59
2018-01-10T19:17:38.995Z,97389.61
2018-01-10T19:20:07.286Z,97388.71
2018-01-10T19:22:35.587Z,97411.53
2018-01-10T19:25:03.958Z,97380.94
2018-01-10T19:27:32.264Z,97391.23
2018-01-10T19:30:00.538Z,97379.27
2018-01-10T19:32:28.833Z,97373.42
2018-01-10T19:34:57.160Z,97374.28
2018-01-10T19:37:25.422Z,97367.52
2018-01-10T19:39:54.477Z,97367.28
2018-01-10T19:42:23.509Z,97369.44
2018-01-10T19:44:51.793Z,97371.48
2018-01-10T19:47:20.048Z,97368.61
2018-01-10T19:49:48.368Z,97375.56
2018-01-10T19:52:17.416Z,97374.87
2018-01-10T19:54:46.521Z,97370.64
2018-01-10T19:57:14.765Z,97372.45
2018-01-10T19:59:43.820Z,97372.66
2018-01-10T20:02:12.069Z,97370.48
2018-01-10T20:04:40.374Z,97366.59
2018-01-10T20:07:08.634Z,97369.74
2018-01-10T20:09:37.689Z,97376.88
2018-01-10T20:12:05.942Z,97371.37
2018-01-10T20:14:34.971Z,97379.31
2018-01-10T20:17:03.268Z,97371.70
2018-01-10T20:19:31.550Z,97382.89
2018-01-10T20:21:59.817Z,97384.41
2018-01-10T20:24:28.086Z,97379.11
2018-01-10T20:26:56.335Z,97382.39
2018-01-10T20:29:24.602Z,97377.82
2018-01-10T20:31:52.860Z,97384.16
2018-01-10T20:34:21.880Z,97386.30
2018-01-10T20:36:50.140Z,97387.39
2018-01-10T20:39:18.491Z,97377.22
2018-01-10T20:41:46.756Z,97389.67
2018-01-10T20:44:15.087Z,97385.98
2018-01-10T20:46:43.329Z,97384.84
2018-01-10T20:49:11.674Z,97393.92
2018-01-10T20:51:39.955Z,97388.41
2018-01-10T20:54:08.228Z,97385.98
2018-01-10T20:56:36.484Z,97388.12
2018-01-10T20:59:04.774Z,97394.06
2018-01-10T21:01:33.071Z,97393.00
2018-01-10T21:04:01.376Z,97395.84
2018-01-10T21:06:29.648Z,97399.69
2018-01-10T21:08:57.928Z,97397.45
2018-01-10T21:11:26.196Z,97400.66
2018-01-10T21:13:55.279Z,97398.09
2018-01-10T21:16:23.565Z,97399.53
2018-01-10T21:18:51.808Z,97402.58
2018-01-10T21:21:20.087Z,97409.06
2018-01-10T21:23:49.123Z,97408.50
2018-01-10T21:26:17.420Z,97417.95
2018-01-10T21:28:45.660Z,97415.61
2018-01-10T21:31:14.709Z,97419.47
2018-01-10T21:33:43.031Z,97416.70
2018-01-10T21:36:11.307Z,97418.66
2018-01-10T21:38:39.560Z,97418.29
2018-01-10T21:41:08.063Z,97419.43
2018-01-10T21:43:36.327Z,97414.84
2018-01-10T21:46:05.357Z,97419.66
2018-01-10T21:48:33.657Z,97416.16
2018-01-10T21:51:01.960Z,97416.59
2018-01-10T21:53:30.188Z,97420.52
2018-01-10T21:55:58.459Z,97421.04
2018-01-10T21:58:26.735Z,97425.93
2018-01-10T22:00:55.000Z,97429.61
2018-01-10T22:03:23.273Z,97422.49
2018-01-10T22:05:51.568Z,97419.77
2018-01-10T22:08:19.833Z,97419.95
2018-01-10T22:10:48.857Z,97417.77
2018-01-10T22:13:17.100Z,97416.63
2018-01-10T22:15:45.379Z,97411.23
2018-01-10T22:18:13.641Z,97424.44
2018-01-10T22:20:41.896Z,97422.28
2018-01-10T22:23:11.281Z,97412.17
2018-01-10T22:25:39.549Z,97407.34
2018-01-10T22:28:08.125Z,97412.14
2018-01-10T22:30:36.398Z,97414.81
2018-01-10T22:33:04.654Z,97409.28
2018-01-10T22:35:32.907Z,97405.10
2018-01-10T22:38:01.163Z,97410.22
2018-01-10T22:40:30.191Z,97418.05
2018-01-10T22:42:58.450Z,97409.77
2018-01-10T22:45:27.492Z,97411.39
2018-01-10T22:47:55.744Z,97417.29
2018-01-10T22:50:24.786Z,97420.13
2018-01-10T22:52:53.034Z,97413.83
2018-01-10T22:55:22.059Z,97424.42
2018-01-10T22:57:50.415Z,97406.56
2018-01-10T23:00:25.467Z,97413.38
2018-01-10T23:02:53.740Z,97410.93
2018-01-10T23:05:22.003Z,97417.64
2018-01-10T23:07:50.275Z,97419.81
2018-01-10T23:10:18.537Z,97417.67
2018-01-10T23:12:47.561Z,97416.25
2018-01-10T23:15:15.838Z,97413.60
2018-01-10T23:17:44.889Z,97413.52
2018-01-10T23:20:13.171Z,97425.11
2018-01-10T23:22:41.452Z,97423.20
2018-01-10T23:25:09.708Z,97427.55
2018-01-10T23:27:38.776Z,97426.78
2018-01-10T23:30:07.037Z,97426.58
2018-01-10T23:32:35.312Z,97427.97
2018-01-10T23:35:03.561Z,97425.74
2018-01-10T23:37:31.858Z,97419.89
2018-01-10T23:40:00.114Z,97423.10
2018-01-10T23:42:28.383Z,97418.17
2018-01-10T23:44:56.659Z,97419.84
2018-01-10T23:47:24.941Z,97416.90
2018-01-10T23:49:53.204Z,97420.09
2018-01-10T23:52:21.467Z,97416.77
2018-01-10T23:54:49.715Z,97413.05
2018-01-10T23:57:17.979Z,97416.02
2018-01-10T23:59:46.989Z,97415.50
